createdAt,value
2023-02-08T00:03:48.582Z,-0.10
2023-02-08T00:07:50.561Z,-0.13
2023-02-08T00:11:52.610Z,-0.10
2023-02-08T00:15:55.249Z,-0.06
2023-02-08T00:19:57.270Z,-0.04
2023-02-08T00:23:59.352Z,0.05
2023-02-08T00:28:03.882Z,-0.18
2023-02-08T00:32:06.229Z,0.02
2023-02-08T00:36:09.144Z,-0.06
2023-02-08T00:40:11.931Z,0.04
2023-02-08T00:44:13.828Z,0.09
2023-02-08T00:48:15.737Z,0.04
2023-02-08T00:52:19.973Z,0.02
2023-02-08T00:56:22.009Z,0.13
2023-02-08T01:00:24.004Z,0.10
2023-02-08T01:04:26.519Z,0.16
2023-02-08T01:08:28.589Z,0.13
2023-02-08T01:12:31.115Z,0.13
2023-02-08T01:16:35.013Z,0.15
2023-02-08T01:20:37.795Z,0.15
2023-02-08T01:24:40.094Z,0.12
2023-02-08T01:28:42.198Z,0.13
2023-02-08T01:32:43.915Z,0.16
2023-02-08T01:36:45.909Z,0.14
2023-02-08T01:40:48.389Z,0.13
2023-02-08T01:45:15.349Z,0.04
2023-02-08T01:49:25.194Z,0.06
2023-02-08T01:53:29.346Z,-0.22
2023-02-08T01:57:31.624Z,-0.11
2023-02-08T02:01:34.263Z,-0.12
2023-02-08T02:05:41.423Z,-0.12
2023-02-08T02:10:22.855Z,-0.14
2023-02-08T02:14:24.923Z,0.05
2023-02-08T02:18:30.529Z,-0.08
2023-02-08T02:22:32.502Z,-0.10
2023-02-08T02:26:44.286Z,0.03
2023-02-08T02:31:01.630Z,0.03
2023-02-08T02:35:20.113Z,-0.11
2023-02-08T02:39:57.406Z,-0.18
2023-02-08T02:44:00.914Z,-0.28
2023-02-08T02:48:13.700Z,-0.27
2023-02-08T02:52:23.866Z,-0.21
2023-02-08T02:56:32.065Z,-0.18
2023-02-08T03:00:34.256Z,-0.17
2023-02-08T03:04:39.178Z,-0.14
2023-02-08T03:09:04.639Z,-0.09
2023-02-08T03:13:31.236Z,-0.12
2023-02-08T03:17:44.998Z,0.03
2023-02-08T03:21:54.904Z,0.02
2023-02-08T03:26:20.576Z,0.02
2023-02-08T03:30:46.764Z,-0.11
2023-02-08T03:34:51.548Z,-0.16
2023-02-08T03:38:54.672Z,-0.15
2023-02-08T03:43:01.156Z,-0.18
2023-02-08T03:47:12.377Z,-0.08
2023-02-08T03:51:15.577Z,-0.22
2023-02-08T03:55:21.699Z,-0.08
2023-02-08T03:59:29.358Z,-0.27
2023-02-08T04:03:33.979Z,-0.22
2023-02-08T04:07:35.964Z,-0.04
2023-02-08T04:11:37.631Z,-0.38
2023-02-08T04:15:40.160Z,-0.39
2023-02-08T04:19:42.409Z,-0.38
2023-02-08T04:23:44.340Z,-0.44
2023-02-08T04:27:46.445Z,-0.55
2023-02-08T04:31:48.587Z,-0.43
2023-02-08T04:35:50.589Z,-0.41
2023-02-08T04:39:52.709Z,-0.34
2023-02-08T04:43:54.630Z,-0.25
2023-02-08T04:47:58.341Z,-0.26
2023-02-08T04:52:01.086Z,-0.25
2023-02-08T04:56:03.119Z,-0.25
2023-02-08T05:00:06.391Z,-0.25
2023-02-08T05:04:08.506Z,-0.20
2023-02-08T05:08:10.430Z,-0.22
2023-02-08T05:12:12.476Z,-0.19
2023-02-08T05:16:14.487Z,-0.15
2023-02-08T05:20:16.573Z,-0.15
2023-02-08T05:24:18.695Z,0.03
2023-02-08T05:28:23.653Z,0.08
2023-02-08T05:32:26.019Z,0.13
2023-02-08T05:36:28.355Z,0.07
2023-02-08T05:40:31.623Z,0.11
2023-02-08T05:44:33.673Z,-0.04
2023-02-08T05:48:35.671Z,-0.07
2023-02-08T05:52:37.658Z,-0.11
2023-02-08T05:56:39.600Z,-0.04
2023-02-08T06:00:42.002Z,-0.01
2023-02-08T06:04:44.230Z,0.03
2023-02-08T06:08:46.607Z,0.06
2023-02-08T06:12:48.726Z,0.09
2023-02-08T06:16:50.744Z,-0.12
2023-02-08T06:20:54.211Z,-0.04
2023-02-08T06:24:56.207Z,-0.10
2023-02-08T06:28:59.181Z,-0.04
2023-02-08T06:33:01.141Z,-0.16
2023-02-08T06:37:05.494Z,-0.08
2023-02-08T06:41:07.873Z,0.06
2023-02-08T06:45:12.065Z,-0.06
2023-02-08T06:49:15.670Z,-0.20
2023-02-08T06:53:17.627Z,-0.11
2023-02-08T06:57:19.763Z,0.02
2023-02-08T07:01:21.733Z,0.04
2023-02-08T07:05:23.750Z,0.07
2023-02-08T07:09:25.715Z,0.23
2023-02-08T07:13:27.849Z,0.22
2023-02-08T07:17:29.847Z,0.47
2023-02-08T07:21:31.855Z,0.25
2023-02-08T07:25:34.034Z,0.31
2023-02-08T07:29:36.674Z,0.23
2023-02-08T07:33:39.581Z,0.20
2023-02-08T07:37:41.753Z,0.08
2023-02-08T07:41:43.685Z,0.31
2023-02-08T07:45:45.719Z,0.44
2023-02-08T07:49:47.745Z,0.32
2023-02-08T07:53:50.569Z,0.46
2023-02-08T07:57:52.182Z,0.76
2023-02-08T08:01:54.215Z,0.84
2023-02-08T08:05:56.242Z,0.94
2023-02-08T08:09:58.371Z,0.71
2023-02-08T08:14:00.468Z,0.72
2023-02-08T08:18:02.468Z,0.90
2023-02-08T08:22:04.518Z,1.12
2023-02-08T08:26:08.810Z,1.13
2023-02-08T08:30:13.949Z,1.06
2023-02-08T08:34:15.937Z,0.64
2023-02-08T08:38:17.895Z,0.74
2023-02-08T08:42:20.898Z,1.07
2023-02-08T08:46:22.947Z,1.00
2023-02-08T08:50:25.214Z,1.01
2023-02-08T08:54:27.214Z,0.91
2023-02-08T08:58:29.717Z,0.95
2023-02-08T09:02:31.862Z,1.10
2023-02-08T09:07:04.714Z,1.35
2023-02-08T09:11:16.748Z,1.13
2023-02-08T09:15:27.105Z,1.20
2023-02-08T09:19:32.471Z,1.37
2023-02-08T09:23:38.619Z,1.54
2023-02-08T09:27:43.253Z,1.30
2023-02-08T09:31:46.402Z,1.75
2023-02-08T09:35:50.487Z,1.81
2023-02-08T09:39:53.184Z,1.84
2023-02-08T09:44:20.652Z,1.78
2023-02-08T09:48:33.991Z,1.58
2023-02-08T09:52:54.772Z,1.71
2023-02-08T09:57:00.074Z,1.85
2023-02-08T10:01:05.965Z,1.92
2023-02-08T10:05:13.856Z,2.13
2023-02-08T10:09:20.832Z,1.78
2023-02-08T10:13:46.398Z,1.87
2023-02-08T10:18:18.698Z,1.82
2023-02-08T10:22:39.604Z,1.61
2023-02-08T10:26:48.035Z,1.45
2023-02-08T10:31:06.850Z,1.68
2023-02-08T10:35:25.785Z,1.60
2023-02-08T10:39:30.871Z,1.30
2023-02-08T10:43:38.692Z,1.48
2023-02-08T10:47:55.572Z,1.54
2023-02-08T10:51:57.609Z,1.44
2023-02-08T10:55:59.888Z,1.57
2023-02-08T11:00:11.377Z,1.58
2023-02-08T11:04:13.728Z,1.39
2023-02-08T11:08:22.334Z,1.67
2023-02-08T11:12:24.346Z,1.65
2023-02-08T11:16:27.390Z,1.55
2023-02-08T11:20:36.867Z,1.89
2023-02-08T11:24:41.489Z,1.68
2023-02-08T11:28:44.334Z,1.54
2023-02-08T11:32:48.592Z,1.79
2023-02-08T11:36:50.876Z,1.91
2023-02-08T11:40:56.330Z,1.93
2023-02-08T11:45:00.120Z,1.73
2023-02-08T11:49:03.585Z,1.67
2023-02-08T11:53:17.458Z,1.68
2023-02-08T11:57:22.361Z,1.68
2023-02-08T12:01:29.422Z,1.77
2023-02-08T12:05:55.366Z,1.47
2023-02-08T12:10:27.391Z,1.55
2023-02-08T12:14:50.525Z,1.52
2023-02-08T12:19:20.326Z,1.56
2023-02-08T12:23:34.744Z,1.53
2023-02-08T12:27:48.510Z,1.79
2023-02-08T12:32:27.930Z,1.91
2023-02-08T12:36:42.151Z,1.89
2023-02-08T12:41:03.104Z,1.45
2023-02-08T12:45:21.575Z,1.61
2023-02-08T12:49:23.526Z,1.80
2023-02-08T12:53:53.037Z,2.32
2023-02-08T12:58:00.266Z,2.59
2023-02-08T13:02:13.472Z,2.80
2023-02-08T13:06:21.354Z,2.49
2023-02-08T13:10:37.446Z,2.33
2023-02-08T13:14:45.771Z,2.10
2023-02-08T13:19:23.919Z,1.97
2023-02-08T13:23:36.552Z,1.81
2023-02-08T13:27:43.098Z,1.92
2023-02-08T13:31:51.770Z,2.00
2023-02-08T13:35:54.435Z,2.01
2023-02-08T13:40:21.523Z,2.01
2023-02-08T13:44:37.399Z,2.24
2023-02-08T13:48:49.500Z,2.48
2023-02-08T13:52:52.369Z,2.21
2023-02-08T13:56:54.538Z,1.80
2023-02-08T14:00:56.628Z,1.51
2023-02-08T14:05:37.089Z,1.23
2023-02-08T14:09:51.206Z,1.12
2023-02-08T14:14:16.150Z,0.94
2023-02-08T14:18:28.912Z,1.13
2023-02-08T14:22:37.327Z,1.13
2023-02-08T14:26:39.398Z,1.19
2023-02-08T14:30:42.766Z,1.06
2023-02-08T14:34:45.180Z,1.14
2023-02-08T14:38:53.858Z,0.92
2023-02-08T14:43:00.194Z,0.87
2023-02-08T14:47:02.016Z,0.75
2023-02-08T14:51:18.666Z,0.77
2023-02-08T14:55:27.495Z,0.60
2023-02-08T14:59:34.613Z,0.30
2023-02-08T15:03:37.183Z,0.30
2023-02-08T15:07:50.123Z,0.10
2023-02-08T15:12:04.960Z,0.04
2023-02-08T15:16:12.441Z,-0.24
2023-02-08T15:20:20.600Z,-0.29
2023-02-08T15:24:23.694Z,-0.44
2023-02-08T15:28:29.375Z,-0.62
2023-02-08T15:32:31.522Z,-1.07
2023-02-08T15:36:36.580Z,-1.56
2023-02-08T15:40:38.593Z,-1.60
2023-02-08T15:44:43.890Z,-1.81
2023-02-08T15:48:46.562Z,-1.84
2023-02-08T15:53:13.373Z,-1.98
2023-02-08T15:57:46.265Z,-2.15
2023-02-08T16:01:49.312Z,-2.26
2023-02-08T16:06:00.566Z,-2.21
2023-02-08T16:10:03.623Z,-2.31
2023-02-08T16:14:07.790Z,-2.40
2023-02-08T16:18:31.684Z,-2.39
2023-02-08T16:22:33.973Z,-2.53
2023-02-08T16:26:45.400Z,-2.59
2023-02-08T16:30:47.681Z,-2.54
2023-02-08T16:34:50.020Z,-2.62
2023-02-08T16:39:16.384Z,-2.74
2023-02-08T16:43:21.173Z,-2.90
2023-02-08T16:47:53.695Z,-2.83
2023-02-08T16:51:59.820Z,-2.99
2023-02-08T16:56:02.209Z,-3.01
2023-02-08T17:00:13.938Z,-3.17
2023-02-08T17:04:16.139Z,-3.21
2023-02-08T17:08:21.050Z,-3.27
2023-02-08T17:12:24.283Z,-3.35
2023-02-08T17:16:28.920Z,-3.53
2023-02-08T17:20:34.648Z,-3.70
2023-02-08T17:24:38.920Z,-3.54
2023-02-08T17:28:43.086Z,-3.67
2023-02-08T17:32:45.056Z,-3.57
2023-02-08T17:36:47.852Z,-3.62
2023-02-08T17:40:49.893Z,-3.52
2023-02-08T17:44:51.460Z,-3.67
2023-02-08T17:48:54.507Z,-3.71
2023-02-08T17:52:56.678Z,-3.83
2023-02-08T17:56:59.822Z,-3.93
2023-02-08T18:01:01.938Z,-4.05
2023-02-08T18:05:04.666Z,-4.18
2023-02-08T18:09:06.661Z,-4.12
2023-02-08T18:13:09.102Z,-4.17
2023-02-08T18:17:11.421Z,-4.20
2023-02-08T18:21:16.153Z,-4.25
2023-02-08T18:25:19.080Z,-4.30
2023-02-08T18:29:21.314Z,-4.37
2023-02-08T18:33:23.342Z,-4.52
2023-02-08T18:37:25.775Z,-4.44
2023-02-08T18:41:29.764Z,-4.56
2023-02-08T18:45:31.928Z,-4.57
2023-02-08T18:49:40.797Z,-4.58
2023-02-08T18:53:45.920Z,-4.58
2023-02-08T18:57:48.077Z,-4.55
2023-02-08T19:01:50.355Z,-4.65
2023-02-08T19:05:52.538Z,-4.58
2023-02-08T19:09:54.722Z,-4.74
2023-02-08T19:13:58.883Z,-4.95
2023-02-08T19:18:00.932Z,-4.95
2023-02-08T19:22:03.152Z,-5.09
2023-02-08T19:26:08.534Z,-5.22
2023-02-08T19:30:10.904Z,-5.32
2023-02-08T19:34:13.076Z,-5.23
2023-02-08T19:38:15.149Z,-5.39
2023-02-08T19:42:17.396Z,-5.35
2023-02-08T19:46:25.701Z,-5.35
2023-02-08T19:50:27.766Z,-5.29
2023-02-08T19:54:30.022Z,-5.27
2023-02-08T19:58:33.327Z,-5.28
2023-02-08T20:02:35.215Z,-5.30
2023-02-08T20:06:39.263Z,-5.29
2023-02-08T20:10:44.279Z,-5.18
2023-02-08T20:14:46.354Z,-5.28
2023-02-08T20:18:49.015Z,-5.37
2023-02-08T20:22:51.170Z,-5.53
2023-02-08T20:26:53.372Z,-5.47
2023-02-08T20:30:55.490Z,-5.47
2023-02-08T20:34:59.723Z,-5.53
2023-02-08T20:39:02.080Z,-5.48
2023-02-08T20:43:04.736Z,-5.46
2023-02-08T20:47:08.892Z,-5.37
2023-02-08T20:51:14.069Z,-5.27
2023-02-08T20:55:15.993Z,-5.25
2023-02-08T20:59:18.002Z,-5.27
2023-02-08T21:03:20.126Z,-5.36
2023-02-08T21:07:22.353Z,-5.38
2023-02-08T21:11:30.519Z,-5.43
2023-02-08T21:15:32.744Z,-5.48
2023-02-08T21:19:35.185Z,-5.54
2023-02-08T21:23:38.173Z,-5.49
2023-02-08T21:27:40.248Z,-5.37
2023-02-08T21:31:42.542Z,-5.36
2023-02-08T21:35:44.615Z,-5.31
2023-02-08T21:39:47.415Z,-5.31
2023-02-08T21:43:51.015Z,-5.58
2023-02-08T21:47:53.200Z,-5.58
2023-02-08T21:52:13.579Z,-5.62
2023-02-08T21:56:15.772Z,-5.71
2023-02-08T22:00:17.986Z,-5.85
2023-02-08T22:04:20.522Z,-5.80
2023-02-08T22:08:22.290Z,-5.89
2023-02-08T22:12:24.482Z,-5.98
2023-02-08T22:16:26.559Z,-6.04
2023-02-08T22:20:29.742Z,-6.01
2023-02-08T22:24:35.500Z,-6.05
2023-02-08T22:28:37.697Z,-6.07
2023-02-08T22:32:44.253Z,-5.99
2023-02-08T22:36:46.843Z,-5.99
2023-02-08T22:40:48.887Z,-6.08
2023-02-08T22:44:54.421Z,-6.13
2023-02-08T22:48:56.496Z,-6.27
2023-02-08T22:52:58.542Z,-6.15
2023-02-08T22:57:00.615Z,-6.16
2023-02-08T23:01:02.673Z,-6.04
2023-02-08T23:05:05.104Z,-6.10
2023-02-08T23:09:07.015Z,-6.10
2023-02-08T23:13:09.584Z,-6.16
2023-02-08T23:17:11.870Z,-6.23
2023-02-08T23:21:18.672Z,-6.35
2023-02-08T23:25:21.202Z,-6.42
2023-02-08T23:29:23.343Z,-6.42
2023-02-08T23:33:24.927Z,-6.43
2023-02-08T23:37:26.952Z,-6.51
2023-02-08T23:41:29.552Z,-6.68
2023-02-08T23:45:31.597Z,-6.75
2023-02-08T23:49:33.822Z,-6.73
2023-02-08T23:53:37.256Z,-6.76
2023-02-08T23:57:39.558Z,-6.72
